createdAt,value
2022-10-27T00:00:49.788Z,99.99
2022-10-27T00:01:49.819Z,99.99
2022-10-27T00:02:49.855Z,99.99
2022-10-27T00:03:50.492Z,99.99
2022-10-27T00:04:49.719Z,99.99
2022-10-27T00:05:49.716Z,99.99
2022-10-27T00:06:49.692Z,99.99
2022-10-27T00:07:49.835Z,99.99
2022-10-27T00:08:49.700Z,99.99
2022-10-27T00:09:49.678Z,99.99
2022-10-27T00:10:49.669Z,99.99
2022-10-27T00:11:49.662Z,99.99
2022-10-27T00:12:50.042Z,99.99
2022-10-27T00:13:49.652Z,99.99
2022-10-27T00:14:49.623Z,99.99
2022-10-27T00:15:49.614Z,99.99
2022-10-27T00:16:50.536Z,99.99
2022-10-27T00:17:49.598Z,99.99
2022-10-27T00:18:49.596Z,99.99
2022-10-27T00:19:49.566Z,99.99
2022-10-27T00:20:49.547Z,99.99
2022-10-27T00:21:49.610Z,99.99
2022-10-27T00:22:49.849Z,99.99
2022-10-27T00:23:49.563Z,99.99
2022-10-27T00:24:49.521Z,99.99
2022-10-27T00:25:49.539Z,99.99
2022-10-27T00:26:49.489Z,99.99
2022-10-27T00:27:49.493Z,99.99
2022-10-27T00:28:49.479Z,99.99
2022-10-27T00:29:49.488Z,99.99
2022-10-27T00:30:49.444Z,99.99
2022-10-27T00:31:49.443Z,99.99
2022-10-27T00:32:49.871Z,99.99
2022-10-27T00:33:49.419Z,99.99
2022-10-27T00:34:49.613Z,99.99
2022-10-27T00:35:49.409Z,99.99
2022-10-27T00:36:49.382Z,99.99
2022-10-27T00:37:49.707Z,99.99
2022-10-27T00:38:49.423Z,99.99
2022-10-27T00:39:49.390Z,99.99
2022-10-27T00:40:49.365Z,99.99
2022-10-27T00:41:49.344Z,99.99
2022-10-27T00:42:49.440Z,99.99
2022-10-27T00:43:49.321Z,99.99
2022-10-27T00:44:49.330Z,99.99
2022-10-27T00:45:49.307Z,99.99
2022-10-27T00:46:49.301Z,99.99
2022-10-27T00:47:49.570Z,99.99
2022-10-27T00:48:49.270Z,99.99
2022-10-27T00:49:49.265Z,99.99
2022-10-27T00:50:49.414Z,99.99
2022-10-27T00:51:49.250Z,99.99
2022-10-27T00:52:49.245Z,99.99
2022-10-27T00:53:49.221Z,99.99
2022-10-27T00:54:49.473Z,99.99
2022-10-27T00:55:49.181Z,99.99
2022-10-27T00:56:51.935Z,99.99
2022-10-27T00:57:49.497Z,99.99
2022-10-27T00:58:50.461Z,99.99
2022-10-27T00:59:49.154Z,99.99
2022-10-27T01:00:49.188Z,99.99
2022-10-27T01:01:49.193Z,99.99
2022-10-27T01:02:49.248Z,99.99
2022-10-27T01:03:49.114Z,99.99
2022-10-27T01:04:49.097Z,99.99
2022-10-27T01:05:49.107Z,99.99
2022-10-27T01:06:49.072Z,99.99
2022-10-27T01:07:49.053Z,99.99
2022-10-27T01:08:49.056Z,99.99
2022-10-27T01:09:49.042Z,99.99
2022-10-27T01:10:49.079Z,99.99
2022-10-27T01:11:49.039Z,99.99
2022-10-27T01:12:49.323Z,99.99
2022-10-27T01:13:49.003Z,99.99
2022-10-27T01:14:49.998Z,99.99
2022-10-27T01:15:48.978Z,99.99
2022-10-27T01:16:48.992Z,99.99
2022-10-27T01:17:48.950Z,99.99
2022-10-27T01:18:48.956Z,99.99
2022-10-27T01:19:49.376Z,99.99
2022-10-27T01:20:49.058Z,99.99
2022-10-27T01:21:48.925Z,99.99
2022-10-27T01:22:49.234Z,99.99
2022-10-27T01:23:48.890Z,99.99
2022-10-27T01:24:48.900Z,99.99
2022-10-27T01:25:49.572Z,99.99
2022-10-27T01:26:48.893Z,99.99
2022-10-27T01:27:48.859Z,99.99
2022-10-27T01:28:49.342Z,99.99
2022-10-27T01:29:48.843Z,99.99
2022-10-27T01:30:48.883Z,99.99
2022-10-27T01:31:48.855Z,99.99
2022-10-27T01:32:49.294Z,99.99
2022-10-27T01:33:48.795Z,99.99
2022-10-27T01:34:48.837Z,99.99
2022-10-27T01:35:48.776Z,99.99
2022-10-27T01:36:48.760Z,99.99
2022-10-27T01:37:48.785Z,99.99
2022-10-27T01:38:48.750Z,99.99
2022-10-27T01:39:48.747Z,99.99
2022-10-27T01:40:48.725Z,99.99
2022-10-27T01:41:48.708Z,99.99
2022-10-27T01:42:48.986Z,99.99
2022-10-27T01:43:48.723Z,99.99
2022-10-27T01:44:48.770Z,99.99
2022-10-27T01:45:48.668Z,99.99
2022-10-27T01:46:48.672Z,99.99
2022-10-27T01:47:48.669Z,99.99
2022-10-27T01:48:48.648Z,99.99
2022-10-27T01:49:48.649Z,99.99
2022-10-27T01:51:03.976Z,99.99
2022-10-27T01:51:48.639Z,99.99
2022-10-27T01:52:48.725Z,99.99
2022-10-27T01:53:48.604Z,99.99
2022-10-27T01:54:48.604Z,99.99
2022-10-27T01:55:48.564Z,99.99
2022-10-27T01:56:48.558Z,99.99
2022-10-27T01:57:48.575Z,99.99
2022-10-27T01:58:48.549Z,99.99
2022-10-27T01:59:48.534Z,99.99
2022-10-27T02:00:48.573Z,99.99
2022-10-27T02:01:48.525Z,99.99
2022-10-27T02:02:48.601Z,99.99
2022-10-27T02:03:48.476Z,99.99
2022-10-27T02:04:48.485Z,99.99
2022-10-27T02:05:48.464Z,99.99
2022-10-27T02:06:48.477Z,99.99
2022-10-27T02:07:48.449Z,99.99
2022-10-27T02:08:48.437Z,99.99
2022-10-27T02:09:48.414Z,99.99
2022-10-27T02:10:48.423Z,99.99
2022-10-27T02:11:48.394Z,99.99
2022-10-27T02:12:48.578Z,99.99
2022-10-27T02:13:48.373Z,99.99
2022-10-27T02:14:48.370Z,99.99
2022-10-27T02:15:48.378Z,99.99
2022-10-27T02:16:48.354Z,99.99
2022-10-27T02:17:48.332Z,99.99
2022-10-27T02:18:48.334Z,99.99
2022-10-27T02:19:48.319Z,99.99
2022-10-27T02:20:48.333Z,99.99
2022-10-27T02:21:48.308Z,99.99
2022-10-27T02:22:50.728Z,99.99
2022-10-27T02:23:48.280Z,99.99
2022-10-27T02:24:48.279Z,99.99
2022-10-27T02:25:48.248Z,99.99
2022-10-27T02:26:48.863Z,99.99
2022-10-27T02:27:48.281Z,99.99
2022-10-27T02:28:48.217Z,99.99
2022-10-27T02:29:48.215Z,99.99
2022-10-27T02:30:48.242Z,99.99
2022-10-27T02:31:50.944Z,99.99
2022-10-27T02:32:48.352Z,99.99
2022-10-27T02:33:48.157Z,99.99
2022-10-27T02:34:48.163Z,99.99
2022-10-27T02:35:48.811Z,99.99
2022-10-27T02:36:48.178Z,99.99
2022-10-27T02:37:48.119Z,99.99
2022-10-27T02:38:48.145Z,99.99
2022-10-27T02:39:48.099Z,99.99
2022-10-27T02:40:48.111Z,99.99
2022-10-27T02:41:48.081Z,99.99
2022-10-27T02:42:48.296Z,99.99
2022-10-27T02:43:48.059Z,99.99
2022-10-27T02:44:48.057Z,99.99
2022-10-27T02:45:48.059Z,99.99
2022-10-27T02:46:51.505Z,99.99
2022-10-27T02:47:48.010Z,99.99
2022-10-27T02:48:48.016Z,99.99
2022-10-27T02:49:47.986Z,99.99
2022-10-27T02:50:48.016Z,99.99
2022-10-27T02:51:47.984Z,99.99
2022-10-27T02:52:48.300Z,99.99
2022-10-27T02:53:47.960Z,99.99
2022-10-27T02:54:47.952Z,99.99
2022-10-27T02:55:47.959Z,99.99
2022-10-27T02:56:47.928Z,99.99
2022-10-27T02:57:47.914Z,99.99
2022-10-27T02:58:47.910Z,99.99
2022-10-27T02:59:51.037Z,99.99
2022-10-27T03:00:47.940Z,99.99
2022-10-27T03:01:47.944Z,99.99
2022-10-27T03:02:48.012Z,99.99
2022-10-27T03:03:47.854Z,99.99
2022-10-27T03:04:47.845Z,99.99
2022-10-27T03:05:49.081Z,99.99
2022-10-27T03:06:47.876Z,99.99
2022-10-27T03:07:47.880Z,99.99
2022-10-27T03:08:47.987Z,99.99
2022-10-27T03:09:47.783Z,99.99
2022-10-27T03:10:47.806Z,99.99
2022-10-27T03:11:47.777Z,99.99
2022-10-27T03:12:47.979Z,99.99
2022-10-27T03:13:47.752Z,99.99
2022-10-27T03:14:47.753Z,99.99
2022-10-27T03:15:47.723Z,99.99
2022-10-27T03:16:47.729Z,99.99
2022-10-27T03:17:47.696Z,99.99
2022-10-27T03:18:47.729Z,99.99
2022-10-27T03:19:47.704Z,99.99
2022-10-27T03:20:47.667Z,99.99
2022-10-27T03:21:47.663Z,99.99
2022-10-27T03:22:47.660Z,99.99
2022-10-27T03:23:47.635Z,99.99
2022-10-27T03:24:47.645Z,99.99
2022-10-27T03:25:48.497Z,99.99
2022-10-27T03:26:47.617Z,99.99
2022-10-27T03:27:47.614Z,99.99
2022-10-27T03:28:47.576Z,99.99
2022-10-27T03:29:47.593Z,99.99
2022-10-27T03:30:47.564Z,99.99
2022-10-27T03:31:47.559Z,99.99
2022-10-27T03:32:47.553Z,99.99
2022-10-27T03:33:47.546Z,99.99
2022-10-27T03:34:47.538Z,99.99
2022-10-27T03:35:47.518Z,99.99
2022-10-27T03:36:47.492Z,99.99
2022-10-27T03:37:47.503Z,99.99
2022-10-27T03:38:47.476Z,99.99
2022-10-27T03:39:47.594Z,99.99
2022-10-27T03:40:47.486Z,99.99
2022-10-27T03:41:47.474Z,99.99
2022-10-27T03:42:47.655Z,99.99
2022-10-27T03:43:47.434Z,99.99
2022-10-27T03:44:47.508Z,99.99
2022-10-27T03:45:47.398Z,99.99
2022-10-27T03:46:47.397Z,99.99
2022-10-27T03:47:47.386Z,99.99
2022-10-27T03:48:47.378Z,99.99
2022-10-27T03:49:47.353Z,99.99
2022-10-27T03:50:47.378Z,99.99
2022-10-27T03:51:47.338Z,99.99
2022-10-27T03:52:47.338Z,99.99
2022-10-27T03:53:47.334Z,99.99
2022-10-27T03:54:47.347Z,99.99
2022-10-27T03:55:47.309Z,99.99
2022-10-27T03:56:47.319Z,99.99
2022-10-27T03:57:47.269Z,99.99
2022-10-27T03:58:47.286Z,99.99
2022-10-27T03:59:47.974Z,99.99
2022-10-27T04:00:47.347Z,99.99
2022-10-27T04:01:47.444Z,99.99
2022-10-27T04:02:47.229Z,99.99
2022-10-27T04:03:47.221Z,99.99
2022-10-27T04:04:47.227Z,99.99
2022-10-27T04:05:47.221Z,99.99
2022-10-27T04:06:47.231Z,99.99
2022-10-27T04:07:47.532Z,99.99
2022-10-27T04:08:47.170Z,99.99
2022-10-27T04:09:47.227Z,99.99
2022-10-27T04:10:47.149Z,99.99
2022-10-27T04:11:47.150Z,99.99
2022-10-27T04:12:47.127Z,99.99
2022-10-27T04:13:47.114Z,99.99
2022-10-27T04:14:47.119Z,99.99
2022-10-27T04:15:47.093Z,99.99
2022-10-27T04:16:47.086Z,99.99
2022-10-27T04:17:47.108Z,99.99
2022-10-27T04:18:47.133Z,99.99
2022-10-27T04:19:47.043Z,99.99
2022-10-27T04:20:47.029Z,99.99
2022-10-27T04:21:47.032Z,99.99
2022-10-27T04:22:47.055Z,99.99
2022-10-27T04:23:47.005Z,99.99
2022-10-27T04:24:47.008Z,99.99
2022-10-27T04:25:46.982Z,99.99
2022-10-27T04:26:46.989Z,99.99
2022-10-27T04:27:46.996Z,99.99
2022-10-27T04:28:46.962Z,99.99
2022-10-27T04:29:46.949Z,99.99
2022-10-27T04:30:47.063Z,99.99
2022-10-27T04:31:46.922Z,99.99
2022-10-27T04:32:46.940Z,99.99
2022-10-27T04:33:46.891Z,99.99
2022-10-27T04:34:46.892Z,99.99
2022-10-27T04:35:46.882Z,99.99
2022-10-27T04:36:46.872Z,99.99
2022-10-27T04:37:46.877Z,99.99
2022-10-27T04:38:46.868Z,99.99
2022-10-27T04:39:46.830Z,99.99
2022-10-27T04:40:46.836Z,99.99
2022-10-27T04:41:46.806Z,99.99
2022-10-27T04:42:46.811Z,99.99
2022-10-27T04:43:46.853Z,99.99
2022-10-27T04:44:46.785Z,99.99
2022-10-27T04:45:46.785Z,99.99
2022-10-27T04:46:46.766Z,99.99
2022-10-27T04:47:46.750Z,99.99
2022-10-27T04:48:46.768Z,99.99
2022-10-27T04:49:46.715Z,99.99
2022-10-27T04:50:46.723Z,99.99
2022-10-27T04:51:46.713Z,99.99
2022-10-27T04:52:46.704Z,99.99
2022-10-27T04:53:46.712Z,99.99
2022-10-27T04:54:46.684Z,99.99
2022-10-27T04:55:46.655Z,99.99
2022-10-27T04:56:46.661Z,99.99
2022-10-27T04:57:46.643Z,99.99
2022-10-27T04:58:46.661Z,99.99
2022-10-27T04:59:46.664Z,99.99
2022-10-27T05:00:46.619Z,99.99
2022-10-27T05:01:46.771Z,99.99
2022-10-27T05:02:46.656Z,99.99
2022-10-27T05:03:46.575Z,99.99
2022-10-27T05:04:46.590Z,99.99
2022-10-27T05:05:46.547Z,99.99
2022-10-27T05:06:46.560Z,99.99
2022-10-27T05:07:46.546Z,99.99
2022-10-27T05:08:46.600Z,99.99
2022-10-27T05:09:46.539Z,99.99
2022-10-27T05:10:46.531Z,99.99
2022-10-27T05:11:46.494Z,99.99
2022-10-27T05:12:46.488Z,99.99
2022-10-27T05:13:46.473Z,99.99
2022-10-27T05:14:46.497Z,99.99
2022-10-27T05:15:46.476Z,99.99
2022-10-27T05:16:46.471Z,99.99
2022-10-27T05:17:46.430Z,99.99
2022-10-27T05:18:46.435Z,99.99
2022-10-27T05:19:46.403Z,99.99
2022-10-27T05:20:46.416Z,99.99
2022-10-27T05:21:46.433Z,99.99
2022-10-27T05:22:46.386Z,99.99
2022-10-27T05:23:47.822Z,99.99
2022-10-27T05:24:46.350Z,99.99
2022-10-27T05:25:46.350Z,99.99
2022-10-27T05:26:46.350Z,99.99
2022-10-27T05:27:46.338Z,99.99
2022-10-27T05:28:46.305Z,99.99
2022-10-27T05:29:46.320Z,99.99
2022-10-27T05:30:46.284Z,99.99
2022-10-27T05:31:46.300Z,99.99
2022-10-27T05:32:47.634Z,99.99
2022-10-27T05:33:46.266Z,99.99
2022-10-27T05:34:46.251Z,99.99
2022-10-27T05:35:46.258Z,99.99
2022-10-27T05:36:46.249Z,99.99
2022-10-27T05:37:46.230Z,99.99
2022-10-27T05:38:46.201Z,99.99
2022-10-27T05:39:46.201Z,99.99
2022-10-27T05:40:46.183Z,99.99
2022-10-27T05:41:46.186Z,99.99
2022-10-27T05:42:46.203Z,99.99
2022-10-27T05:43:46.188Z,99.99
2022-10-27T05:44:46.148Z,99.99
2022-10-27T05:45:46.152Z,99.99
2022-10-27T05:46:46.118Z,99.99
2022-10-27T05:47:46.122Z,99.99
2022-10-27T05:48:46.094Z,99.99
2022-10-27T05:49:46.089Z,99.99
2022-10-27T05:50:46.045Z,99.99
2022-10-27T05:51:46.043Z,99.99
2022-10-27T05:52:46.001Z,99.99
2022-10-27T05:53:46.015Z,99.99
2022-10-27T05:54:46.010Z,99.99
2022-10-27T05:55:45.989Z,99.99
2022-10-27T05:56:45.963Z,99.99
2022-10-27T05:57:45.986Z,99.99
2022-10-27T05:58:45.959Z,99.99
2022-10-27T05:59:45.959Z,99.99
2022-10-27T06:00:45.940Z,99.99
2022-10-27T06:01:46.058Z,99.99
2022-10-27T06:02:45.896Z,99.99
2022-10-27T06:03:45.892Z,99.99
2022-10-27T06:04:45.899Z,99.99
2022-10-27T06:05:45.887Z,99.99
2022-10-27T06:06:45.860Z,99.99
2022-10-27T06:07:45.865Z,99.99
2022-10-27T06:08:45.830Z,99.99
2022-10-27T06:09:45.832Z,99.99
2022-10-27T06:10:45.833Z,99.99
2022-10-27T06:11:45.808Z,99.99
2022-10-27T06:12:45.790Z,99.99
2022-10-27T06:13:45.782Z,99.99
2022-10-27T06:14:45.774Z,99.99
2022-10-27T06:15:45.856Z,99.99
2022-10-27T06:16:45.756Z,99.99
2022-10-27T06:17:45.742Z,99.99
2022-10-27T06:18:45.727Z,99.99
2022-10-27T06:19:45.731Z,99.99
2022-10-27T06:20:45.713Z,99.99
2022-10-27T06:21:45.698Z,99.99
2022-10-27T06:22:45.708Z,99.99
2022-10-27T06:23:45.688Z,99.99
2022-10-27T06:24:45.751Z,99.99
2022-10-27T06:25:45.669Z,99.99
2022-10-27T06:26:45.891Z,99.99
2022-10-27T06:27:45.650Z,99.99
2022-10-27T06:28:45.627Z,99.99
2022-10-27T06:29:45.620Z,99.99
2022-10-27T06:30:45.603Z,99.99
2022-10-27T06:31:45.610Z,99.99
2022-10-27T06:32:45.583Z,99.99
2022-10-27T06:33:45.584Z,99.99
2022-10-27T06:34:45.562Z,99.99
2022-10-27T06:35:45.590Z,99.99
2022-10-27T06:36:45.537Z,99.99
2022-10-27T06:37:45.563Z,99.99
2022-10-27T06:38:45.601Z,99.99
2022-10-27T06:39:45.547Z,99.99
2022-10-27T06:40:45.502Z,99.99
2022-10-27T06:41:45.491Z,99.99
2022-10-27T06:43:02.057Z,99.99
2022-10-27T06:43:45.486Z,99.99
2022-10-27T06:44:45.634Z,99.99
2022-10-27T06:45:45.467Z,99.99
2022-10-27T06:46:45.450Z,99.99
2022-10-27T06:47:45.454Z,99.99
2022-10-27T06:48:45.437Z,99.99
2022-10-27T06:49:45.446Z,99.99
2022-10-27T06:50:45.415Z,99.99
2022-10-27T06:51:45.404Z,99.99
2022-10-27T06:52:45.370Z,99.99
2022-10-27T06:53:45.386Z,99.99
2022-10-27T06:54:45.368Z,99.99
2022-10-27T06:55:45.363Z,99.99
2022-10-27T06:56:45.335Z,99.99
2022-10-27T06:57:45.451Z,99.99
2022-10-27T06:58:45.324Z,99.99
2022-10-27T06:59:45.325Z,99.99
2022-10-27T07:00:45.323Z,99.99
2022-10-27T07:01:45.341Z,99.99
2022-10-27T07:02:45.266Z,99.99
2022-10-27T07:03:45.301Z,99.99
2022-10-27T07:04:45.247Z,99.99
2022-10-27T07:05:45.253Z,99.99
2022-10-27T07:06:45.252Z,99.99
2022-10-27T07:07:45.222Z,99.99
2022-10-27T07:08:45.276Z,99.99
2022-10-27T07:09:45.204Z,99.99
2022-10-27T07:10:45.208Z,99.99
2022-10-27T07:11:45.199Z,99.99
2022-10-27T07:12:45.196Z,99.99
2022-10-27T07:13:45.158Z,99.99
2022-10-27T07:14:45.200Z,99.99
2022-10-27T07:15:45.184Z,99.99
2022-10-27T07:16:45.175Z,99.99
2022-10-27T07:17:45.213Z,99.82
2022-10-27T07:18:45.101Z,99.72
2022-10-27T07:19:45.094Z,99.62
2022-10-27T07:20:45.086Z,99.27
2022-10-27T07:21:45.096Z,99.16
2022-10-27T07:22:45.059Z,98.86
2022-10-27T07:23:45.064Z,98.86
2022-10-27T07:24:45.051Z,98.75
2022-10-27T07:26:45.079Z,98.20
2022-10-27T07:27:45.018Z,98.20
2022-10-27T07:28:45.000Z,97.80
2022-10-27T07:29:44.996Z,97.69
2022-10-27T07:30:44.986Z,97.69
2022-10-27T07:31:44.978Z,97.19
2022-10-27T07:32:44.987Z,97.19
2022-10-27T07:33:44.952Z,97.04
2022-10-27T07:34:44.955Z,96.94
2022-10-27T07:35:44.938Z,96.83
2022-10-27T07:36:44.919Z,96.63
2022-10-27T07:37:44.947Z,96.33
2022-10-27T07:38:44.913Z,96.12
2022-10-27T07:39:44.917Z,96.08
2022-10-27T07:40:44.879Z,96.08
2022-10-27T07:41:44.885Z,95.78
2022-10-27T07:42:44.901Z,95.47
2022-10-27T07:43:44.856Z,95.32
2022-10-27T07:44:44.843Z,95.02
2022-10-27T07:45:44.843Z,94.82
2022-10-27T07:46:44.815Z,94.61
2022-10-27T07:47:44.899Z,94.71
2022-10-27T07:48:44.969Z,94.31
2022-10-27T07:49:44.806Z,94.71
2022-10-27T07:50:45.004Z,94.21
2022-10-27T07:51:44.788Z,94.10
2022-10-27T07:52:44.770Z,93.55
2022-10-27T07:53:44.784Z,93.35
2022-10-27T07:54:45.073Z,93.55
2022-10-27T07:55:44.732Z,93.25
2022-10-27T07:56:44.729Z,93.05
2022-10-27T07:57:44.711Z,93.00
2022-10-27T07:58:44.696Z,92.40
2022-10-27T07:59:44.720Z,92.49
2022-10-27T08:00:44.695Z,92.19
2022-10-27T08:01:44.764Z,92.40
2022-10-27T08:02:44.642Z,91.99
2022-10-27T08:03:47.437Z,91.48
2022-10-27T08:04:44.629Z,91.64
2022-10-27T08:05:44.644Z,91.54
2022-10-27T08:06:44.625Z,91.24
2022-10-27T08:07:44.605Z,91.24
2022-10-27T08:08:44.631Z,91.03
2022-10-27T08:09:44.634Z,90.99
2022-10-27T08:10:45.052Z,90.58
2022-10-27T08:11:44.590Z,90.38
2022-10-27T08:12:44.584Z,90.08
2022-10-27T08:13:44.525Z,90.14
2022-10-27T08:14:44.525Z,89.53
2022-10-27T08:15:44.670Z,89.23
2022-10-27T08:16:44.543Z,89.12
2022-10-27T08:17:44.496Z,88.82
2022-10-27T08:18:44.470Z,89.02
2022-10-27T08:19:44.542Z,88.92
2022-10-27T08:20:44.473Z,88.31
2022-10-27T08:21:44.489Z,88.88
2022-10-27T08:22:44.477Z,88.57
2022-10-27T08:23:44.463Z,87.97
2022-10-27T08:24:44.423Z,88.27
2022-10-27T08:25:44.408Z,88.37
2022-10-27T08:26:44.439Z,87.97
2022-10-27T08:27:44.392Z,88.17
2022-10-27T08:28:44.366Z,87.87
2022-10-27T08:29:44.400Z,87.82
2022-10-27T08:30:51.945Z,87.56
2022-10-27T08:31:44.361Z,87.82
2022-10-27T08:32:44.320Z,87.02
2022-10-27T08:33:44.333Z,87.12
2022-10-27T08:34:45.789Z,87.32
2022-10-27T08:35:44.551Z,87.12
2022-10-27T08:36:44.282Z,86.82
2022-10-27T08:37:44.308Z,86.67
2022-10-27T08:38:44.266Z,86.47
2022-10-27T08:39:44.270Z,86.16
2022-10-27T08:40:44.296Z,86.47
2022-10-27T08:41:44.253Z,86.16
2022-10-27T08:42:44.237Z,85.96
2022-10-27T08:43:44.226Z,85.96
2022-10-27T08:44:44.200Z,85.02
2022-10-27T08:45:44.208Z,85.11
2022-10-27T08:46:44.186Z,85.22
2022-10-27T08:47:44.204Z,85.02
2022-10-27T08:48:44.168Z,84.67
2022-10-27T08:49:46.214Z,84.57
2022-10-27T08:50:44.145Z,84.27
2022-10-27T08:51:44.140Z,83.92
2022-10-27T08:52:44.148Z,83.72
2022-10-27T08:53:44.121Z,83.32
2022-10-27T08:54:44.102Z,82.61
2022-10-27T08:55:44.094Z,82.91
2022-10-27T08:56:44.079Z,83.01
2022-10-27T08:57:44.111Z,82.91
2022-10-27T08:59:45.109Z,83.18
2022-10-27T09:00:44.030Z,82.57
2022-10-27T09:01:44.173Z,82.17
2022-10-27T09:02:44.108Z,81.76
2022-10-27T09:03:44.037Z,82.07
2022-10-27T09:04:44.000Z,82.47
2022-10-27T09:05:44.042Z,82.07
2022-10-27T09:06:43.988Z,81.36
2022-10-27T09:07:44.001Z,81.96
2022-10-27T09:08:43.946Z,81.26
2022-10-27T09:09:44.003Z,81.67
2022-10-27T09:10:43.934Z,82.17
2022-10-27T09:11:43.957Z,82.13
2022-10-27T09:12:43.901Z,81.93
2022-10-27T09:13:43.903Z,81.22
2022-10-27T09:14:44.347Z,81.12
2022-10-27T09:15:43.931Z,80.98
2022-10-27T09:16:43.889Z,80.58
2022-10-27T09:17:43.854Z,81.08
2022-10-27T09:18:43.843Z,80.38
2022-10-27T09:19:43.863Z,80.27
2022-10-27T09:20:43.824Z,80.18
2022-10-27T09:21:43.846Z,81.08
2022-10-27T09:22:43.808Z,80.68
2022-10-27T09:23:43.800Z,80.88
2022-10-27T09:24:43.778Z,80.78
2022-10-27T09:25:43.857Z,80.68
2022-10-27T09:26:43.762Z,81.38
2022-10-27T09:27:43.762Z,80.38
2022-10-27T09:28:43.723Z,79.77
2022-10-27T09:29:43.724Z,80.13
2022-10-27T09:30:43.756Z,79.33
2022-10-27T09:31:43.742Z,78.83
2022-10-27T09:32:43.688Z,79.49
2022-10-27T09:33:43.698Z,78.79
2022-10-27T09:34:43.674Z,79.29
2022-10-27T09:35:43.686Z,78.35
2022-10-27T09:36:43.675Z,78.65
2022-10-27T09:37:43.649Z,78.25
2022-10-27T09:38:43.652Z,78.61
2022-10-27T09:39:43.625Z,76.87
2022-10-27T09:40:43.626Z,75.96
2022-10-27T09:41:43.623Z,76.16
2022-10-27T09:42:43.614Z,76.16
2022-10-27T09:43:43.590Z,75.62
2022-10-27T09:44:43.590Z,75.42
2022-10-27T09:45:43.580Z,75.22
2022-10-27T09:46:43.559Z,75.12
2022-10-27T09:47:43.558Z,75.42
2022-10-27T09:48:43.542Z,75.12
2022-10-27T09:49:43.525Z,75.22
2022-10-27T09:50:43.526Z,74.92
2022-10-27T09:51:43.662Z,74.98
2022-10-27T09:52:43.536Z,74.98
2022-10-27T09:53:43.482Z,74.38
2022-10-27T09:54:43.476Z,73.74
2022-10-27T09:55:43.451Z,73.24
2022-10-27T09:56:43.456Z,73.41
2022-10-27T09:57:43.452Z,72.90
2022-10-27T09:58:43.429Z,71.47
2022-10-27T09:59:43.417Z,71.77
2022-10-27T10:00:43.404Z,71.06
2022-10-27T10:01:43.540Z,71.16
2022-10-27T10:02:47.226Z,71.56
2022-10-27T10:03:43.400Z,71.47
2022-10-27T10:04:43.389Z,71.90
2022-10-27T10:05:43.341Z,72.20
2022-10-27T10:06:43.356Z,72.94
2022-10-27T10:07:43.346Z,72.60
2022-10-27T10:08:43.381Z,71.97
2022-10-27T10:09:43.353Z,71.33
2022-10-27T10:10:43.313Z,71.03
2022-10-27T10:11:43.308Z,70.73
2022-10-27T10:12:43.309Z,69.92
2022-10-27T10:13:43.260Z,70.73
2022-10-27T10:14:43.273Z,70.12
2022-10-27T10:15:43.251Z,70.69
2022-10-27T10:16:43.253Z,70.19
2022-10-27T10:17:43.248Z,70.19
2022-10-27T10:18:43.244Z,69.56
2022-10-27T10:19:43.245Z,68.32
2022-10-27T10:20:43.386Z,68.02
2022-10-27T10:21:43.196Z,68.15
2022-10-27T10:22:43.945Z,69.66
2022-10-27T10:23:43.162Z,68.85
2022-10-27T10:24:43.164Z,68.55
2022-10-27T10:25:43.153Z,69.23
2022-10-27T10:26:43.135Z,67.82
2022-10-27T10:27:43.115Z,67.42
2022-10-27T10:28:43.147Z,67.69
2022-10-27T10:29:43.096Z,67.76
2022-10-27T10:31:42.997Z,66.52
2022-10-27T10:32:43.361Z,66.49
2022-10-27T10:33:46.004Z,65.56
2022-10-27T10:34:43.342Z,64.76
2022-10-27T10:35:43.342Z,65.36
2022-10-27T10:36:43.318Z,65.09
2022-10-27T10:37:43.322Z,65.19
2022-10-27T10:38:43.305Z,65.59
2022-10-27T10:39:43.306Z,65.29
2022-10-27T10:40:43.274Z,65.36
2022-10-27T10:41:43.296Z,64.76
2022-10-27T10:42:43.265Z,63.76
2022-10-27T10:43:43.289Z,64.03
2022-10-27T10:44:44.899Z,63.23
2022-10-27T10:45:43.607Z,62.83
2022-10-27T10:46:43.226Z,62.20
2022-10-27T10:47:43.220Z,62.01
2022-10-27T10:48:43.225Z,61.80
2022-10-27T10:49:43.223Z,62.27
2022-10-27T10:50:43.178Z,61.65
2022-10-27T10:51:43.182Z,62.15
2022-10-27T10:52:43.163Z,61.47
2022-10-27T10:53:43.152Z,61.98
2022-10-27T10:54:43.168Z,61.25
2022-10-27T10:55:43.143Z,59.99
2022-10-27T10:56:43.110Z,58.94
2022-10-27T10:57:43.115Z,58.04
2022-10-27T10:58:43.093Z,58.27
2022-10-27T10:59:43.114Z,58.89
2022-10-27T11:00:43.136Z,59.09
2022-10-27T11:01:43.204Z,59.30
2022-10-27T11:02:43.064Z,57.97
2022-10-27T11:03:43.055Z,58.29
2022-10-27T11:04:43.041Z,58.59
2022-10-27T11:05:43.032Z,58.97
2022-10-27T11:06:43.013Z,59.32
2022-10-27T11:07:43.079Z,60.95
2022-10-27T11:08:43.051Z,61.54
2022-10-27T11:09:42.989Z,62.46
2022-10-27T11:10:43.024Z,63.06
2022-10-27T11:11:42.979Z,62.86
2022-10-27T11:12:42.954Z,62.86
2022-10-27T11:13:42.951Z,63.06
2022-10-27T11:14:42.936Z,63.13
2022-10-27T11:15:42.931Z,63.13
2022-10-27T11:16:43.016Z,62.53
2022-10-27T11:17:42.916Z,62.63
2022-10-27T11:18:42.913Z,62.83
2022-10-27T11:19:42.897Z,63.96
2022-10-27T11:20:42.895Z,63.76
2022-10-27T11:21:42.921Z,63.17
2022-10-27T11:22:42.980Z,63.46
2022-10-27T11:23:42.862Z,63.46
2022-10-27T11:24:42.832Z,63.43
2022-10-27T11:25:42.830Z,63.23
2022-10-27T11:26:42.827Z,63.63
2022-10-27T11:27:42.817Z,64.33
2022-10-27T11:28:42.799Z,62.73
2022-10-27T11:29:42.795Z,63.23
2022-10-27T11:30:42.775Z,63.73
2022-10-27T11:31:42.782Z,62.73
2022-10-27T11:32:42.768Z,62.83
2022-10-27T11:33:42.741Z,61.73
2022-10-27T11:34:42.742Z,62.83
2022-10-27T11:35:42.739Z,61.93
2022-10-27T11:36:42.718Z,62.10
2022-10-27T11:37:42.735Z,61.57
2022-10-27T11:38:42.687Z,61.77
2022-10-27T11:39:42.697Z,62.04
2022-10-27T11:40:42.671Z,60.55
2022-10-27T11:41:42.655Z,60.45
2022-10-27T11:42:42.689Z,59.55
2022-10-27T11:43:44.839Z,59.45
2022-10-27T11:44:42.654Z,60.55
2022-10-27T11:45:43.613Z,59.65
2022-10-27T11:46:42.672Z,59.02
2022-10-27T11:47:42.607Z,59.42
2022-10-27T11:48:42.597Z,59.22
2022-10-27T11:49:42.583Z,59.52
2022-10-27T11:50:42.582Z,57.93
2022-10-27T11:51:42.559Z,59.02
2022-10-27T11:52:42.542Z,58.50
2022-10-27T11:53:42.558Z,57.70
2022-10-27T11:54:42.530Z,57.40
2022-10-27T11:55:42.526Z,58.07
2022-10-27T11:56:42.497Z,57.67
2022-10-27T11:57:42.498Z,59.17
2022-10-27T11:58:42.474Z,57.20
2022-10-27T11:59:42.486Z,58.03
2022-10-27T12:00:42.454Z,58.42
2022-10-27T12:01:42.470Z,58.23
2022-10-27T12:02:42.503Z,58.06
2022-10-27T12:03:45.281Z,59.05
2022-10-27T12:04:42.425Z,58.03
2022-10-27T12:05:42.410Z,58.25
2022-10-27T12:06:42.427Z,58.85
2022-10-27T12:07:42.397Z,60.15
2022-10-27T12:08:42.372Z,59.55
2022-10-27T12:09:42.373Z,60.45
2022-10-27T12:10:42.352Z,59.95
2022-10-27T12:11:42.379Z,60.75
2022-10-27T12:12:42.323Z,60.95
2022-10-27T12:13:42.363Z,60.05
2022-10-27T12:14:42.309Z,58.95
2022-10-27T12:15:42.301Z,59.75
2022-10-27T12:16:42.291Z,59.45
2022-10-27T12:17:42.271Z,59.22
2022-10-27T12:18:42.275Z,58.53
2022-10-27T12:19:42.269Z,58.33
2022-10-27T12:20:42.234Z,58.72
2022-10-27T12:21:42.247Z,58.20
2022-10-27T12:22:42.298Z,58.17
2022-10-27T12:23:42.228Z,57.47
2022-10-27T12:24:42.195Z,58.07
2022-10-27T12:25:42.217Z,58.17
2022-10-27T12:26:42.247Z,58.47
2022-10-27T12:27:42.175Z,58.76
2022-10-27T12:28:42.165Z,57.70
2022-10-27T12:29:42.152Z,59.49
2022-10-27T12:30:42.210Z,59.52
2022-10-27T12:31:42.155Z,58.62
2022-10-27T12:32:42.099Z,58.83
2022-10-27T12:33:42.103Z,58.42
2022-10-27T12:34:42.096Z,58.42
2022-10-27T12:35:42.088Z,58.89
2022-10-27T12:36:42.074Z,58.89
2022-10-27T12:37:42.057Z,57.17
2022-10-27T12:38:42.033Z,57.15
2022-10-27T12:39:42.054Z,56.05
2022-10-27T12:40:42.027Z,55.43
2022-10-27T12:41:42.013Z,54.71
2022-10-27T12:42:42.007Z,54.35
2022-10-27T12:43:42.027Z,55.02
2022-10-27T12:44:41.970Z,52.84
2022-10-27T12:45:48.695Z,53.63
2022-10-27T12:46:41.981Z,52.22
2022-10-27T12:47:41.954Z,51.50
2022-10-27T12:48:41.935Z,51.42
2022-10-27T12:49:41.930Z,52.64
2022-10-27T12:50:41.939Z,52.76
2022-10-27T12:51:41.909Z,53.33
2022-10-27T12:52:41.891Z,53.26
2022-10-27T12:53:41.889Z,54.06
2022-10-27T12:54:41.917Z,53.78
2022-10-27T12:55:41.882Z,54.90